sensor_id;sensor_type;location;lat;lon;timestamp;P1;durP1;ratioP1;P2;durP2;ratioP2
37157;SDS011;23050;51.776;22.638;2023-11-19T00:01:10;73.80;;;31.15;;
37157;SDS011;23050;51.776;22.638;2023-11-19T00:03:36;65.80;;;26.98;;
37157;SDS011;23050;51.776;22.638;2023-11-19T00:06:01;65.65;;;28.80;;
37157;SDS011;23050;51.776;22.638;2023-11-19T00:08:29;64.22;;;28.10;;
37157;SDS011;23050;51.776;22.638;2023-11-19T00:10:55;95.38;;;38.55;;
37157;SDS011;23050;51.776;22.638;2023-11-19T00:13:20;87.78;;;35.83;;
37157;SDS011;23050;51.776;22.638;2023-11-19T00:15:46;76.85;;;34.35;;
37157;SDS011;23050;51.776;22.638;2023-11-19T00:18:12;69.60;;;30.65;;
37157;SDS011;23050;51.776;22.638;2023-11-19T00:20:39;58.88;;;26.85;;
37157;SDS011;23050;51.776;22.638;2023-11-19T00:23:05;80.65;;;35.28;;
37157;SDS011;23050;51.776;22.638;2023-11-19T00:25:30;107.20;;;38.22;;
37157;SDS011;23050;51.776;22.638;2023-11-19T00:27:56;135.25;;;48.13;;
37157;SDS011;23050;51.776;22.638;2023-11-19T00:30:22;139.02;;;50.28;;
37157;SDS011;23050;51.776;22.638;2023-11-19T00:32:47;99.75;;;37.05;;
37157;SDS011;23050;51.776;22.638;2023-11-19T00:35:13;118.72;;;39.63;;
37157;SDS011;23050;51.776;22.638;2023-11-19T00:37:39;171.77;;;49.90;;
37157;SDS011;23050;51.776;22.638;2023-11-19T00:40:05;218.57;;;62.88;;
37157;SDS011;23050;51.776;22.638;2023-11-19T00:42:31;160.18;;;56.50;;
37157;SDS011;23050;51.776;22.638;2023-11-19T00:44:57;89.22;;;40.38;;
37157;SDS011;23050;51.776;22.638;2023-11-19T00:47:23;79.38;;;37.58;;
37157;SDS011;23050;51.776;22.638;2023-11-19T00:49:49;77.95;;;35.25;;
37157;SDS011;23050;51.776;22.638;2023-11-19T00:52:15;75.88;;;32.45;;
37157;SDS011;23050;51.776;22.638;2023-11-19T00:54:41;77.20;;;34.13;;
37157;SDS011;23050;51.776;22.638;2023-11-19T00:57:08;75.32;;;31.20;;
37157;SDS011;23050;51.776;22.638;2023-11-19T00:59:33;66.80;;;27.08;;
37157;SDS011;23050;51.776;22.638;2023-11-19T01:01:59;64.70;;;28.15;;
37157;SDS011;23050;51.776;22.638;2023-11-19T01:04:28;69.10;;;27.50;;
37157;SDS011;23050;51.776;22.638;2023-11-19T01:06:55;70.55;;;26.20;;
37157;SDS011;23050;51.776;22.638;2023-11-19T01:09:20;65.85;;;26.63;;
37157;SDS011;23050;51.776;22.638;2023-11-19T01:11:46;71.15;;;27.48;;
37157;SDS011;23050;51.776;22.638;2023-11-19T01:14:11;70.93;;;27.25;;
37157;SDS011;23050;51.776;22.638;2023-11-19T01:16:37;65.82;;;27.98;;
37157;SDS011;23050;51.776;22.638;2023-11-19T01:19:03;66.85;;;27.35;;
37157;SDS011;23050;51.776;22.638;2023-11-19T01:21:30;68.18;;;25.25;;
37157;SDS011;23050;51.776;22.638;2023-11-19T01:23:56;59.13;;;23.35;;
37157;SDS011;23050;51.776;22.638;2023-11-19T01:26:23;65.57;;;25.55;;
37157;SDS011;23050;51.776;22.638;2023-11-19T01:28:49;53.35;;;23.92;;
37157;SDS011;23050;51.776;22.638;2023-11-19T01:31:17;70.15;;;25.65;;
37157;SDS011;23050;51.776;22.638;2023-11-19T01:33:43;59.17;;;23.90;;
37157;SDS011;23050;51.776;22.638;2023-11-19T01:36:09;59.58;;;24.63;;
37157;SDS011;23050;51.776;22.638;2023-11-19T01:38:37;54.63;;;22.77;;
37157;SDS011;23050;51.776;22.638;2023-11-19T01:41:03;57.78;;;24.33;;
37157;SDS011;23050;51.776;22.638;2023-11-19T01:43:35;63.75;;;25.77;;
37157;SDS011;23050;51.776;22.638;2023-11-19T01:46:02;65.07;;;27.00;;
37157;SDS011;23050;51.776;22.638;2023-11-19T01:48:29;66.38;;;24.60;;
37157;SDS011;23050;51.776;22.638;2023-11-19T01:51:01;58.15;;;24.13;;
37157;SDS011;23050;51.776;22.638;2023-11-19T01:53:27;58.10;;;24.58;;
37157;SDS011;23050;51.776;22.638;2023-11-19T01:55:54;54.30;;;22.55;;
37157;SDS011;23050;51.776;22.638;2023-11-19T01:58:20;61.65;;;24.33;;
37157;SDS011;23050;51.776;22.638;2023-11-19T02:00:47;63.78;;;24.00;;
37157;SDS011;23050;51.776;22.638;2023-11-19T02:03:13;61.67;;;23.95;;
37157;SDS011;23050;51.776;22.638;2023-11-19T02:05:39;60.88;;;24.60;;
37157;SDS011;23050;51.776;22.638;2023-11-19T02:08:05;64.10;;;23.83;;
37157;SDS011;23050;51.776;22.638;2023-11-19T02:10:31;63.47;;;23.55;;
37157;SDS011;23050;51.776;22.638;2023-11-19T02:12:57;63.65;;;26.30;;
37157;SDS011;23050;51.776;22.638;2023-11-19T02:15:23;68.38;;;23.98;;
37157;SDS011;23050;51.776;22.638;2023-11-19T02:17:49;63.05;;;25.15;;
37157;SDS011;23050;51.776;22.638;2023-11-19T02:20:16;69.05;;;26.10;;
37157;SDS011;23050;51.776;22.638;2023-11-19T02:22:42;67.03;;;24.48;;
37157;SDS011;23050;51.776;22.638;2023-11-19T02:25:15;70.30;;;24.85;;
37157;SDS011;23050;51.776;22.638;2023-11-19T02:30:17;52.63;;;17.73;;
37157;SDS011;23050;51.776;22.638;2023-11-19T02:32:43;58.92;;;22.63;;
37157;SDS011;23050;51.776;22.638;2023-11-19T02:35:08;61.05;;;25.50;;
37157;SDS011;23050;51.776;22.638;2023-11-19T02:37:34;65.90;;;25.02;;
37157;SDS011;23050;51.776;22.638;2023-11-19T02:40:00;60.72;;;23.17;;
37157;SDS011;23050;51.776;22.638;2023-11-19T02:42:28;65.47;;;23.92;;
37157;SDS011;23050;51.776;22.638;2023-11-19T02:44:53;59.30;;;22.70;;
37157;SDS011;23050;51.776;22.638;2023-11-19T02:47:19;65.72;;;24.25;;
37157;SDS011;23050;51.776;22.638;2023-11-19T02:49:46;63.75;;;24.58;;
37157;SDS011;23050;51.776;22.638;2023-11-19T02:52:13;69.88;;;23.65;;
37157;SDS011;23050;51.776;22.638;2023-11-19T02:54:39;65.97;;;23.85;;
37157;SDS011;23050;51.776;22.638;2023-11-19T02:57:06;78.32;;;27.45;;
37157;SDS011;23050;51.776;22.638;2023-11-19T02:59:35;68.75;;;24.80;;
37157;SDS011;23050;51.776;22.638;2023-11-19T03:02:06;84.63;;;27.42;;
37157;SDS011;23050;51.776;22.638;2023-11-19T03:04:36;96.63;;;26.70;;
37157;SDS011;23050;51.776;22.638;2023-11-19T03:07:03;88.45;;;25.90;;
37157;SDS011;23050;51.776;22.638;2023-11-19T03:09:29;91.30;;;27.00;;
37157;SDS011;23050;51.776;22.638;2023-11-19T03:11:54;99.28;;;26.90;;
37157;SDS011;23050;51.776;22.638;2023-11-19T03:14:20;97.75;;;27.63;;
37157;SDS011;23050;51.776;22.638;2023-11-19T03:16:47;92.38;;;25.92;;
37157;SDS011;23050;51.776;22.638;2023-11-19T03:19:13;102.50;;;27.95;;
37157;SDS011;23050;51.776;22.638;2023-11-19T03:21:40;100.85;;;27.90;;
37157;SDS011;23050;51.776;22.638;2023-11-19T03:24:05;102.38;;;27.27;;
37157;SDS011;23050;51.776;22.638;2023-11-19T03:26:32;102.20;;;26.98;;
37157;SDS011;23050;51.776;22.638;2023-11-19T03:28:59;114.40;;;29.95;;
37157;SDS011;23050;51.776;22.638;2023-11-19T03:31:24;117.20;;;29.15;;
37157;SDS011;23050;51.776;22.638;2023-11-19T03:33:50;125.50;;;31.10;;
37157;SDS011;23050;51.776;22.638;2023-11-19T03:36:16;98.75;;;27.90;;
37157;SDS011;23050;51.776;22.638;2023-11-19T03:38:42;108.55;;;29.65;;
37157;SDS011;23050;51.776;22.638;2023-11-19T03:41:11;102.07;;;27.02;;
37157;SDS011;23050;51.776;22.638;2023-11-19T03:46:03;123.70;;;27.92;;
37157;SDS011;23050;51.776;22.638;2023-11-19T03:48:30;96.50;;;25.20;;
37157;SDS011;23050;51.776;22.638;2023-11-19T03:50:56;112.18;;;25.08;;
37157;SDS011;23050;51.776;22.638;2023-11-19T03:53:22;105.03;;;26.88;;
37157;SDS011;23050;51.776;22.638;2023-11-19T03:55:49;119.05;;;27.80;;
37157;SDS011;23050;51.776;22.638;2023-11-19T03:58:15;112.40;;;26.83;;
37157;SDS011;23050;51.776;22.638;2023-11-19T04:00:40;167.50;;;29.10;;
37157;SDS011;23050;51.776;22.638;2023-11-19T04:03:06;106.43;;;27.63;;
37157;SDS011;23050;51.776;22.638;2023-11-19T04:05:31;136.48;;;27.70;;
37157;SDS011;23050;51.776;22.638;2023-11-19T04:07:57;153.40;;;27.77;;
37157;SDS011;23050;51.776;22.638;2023-11-19T04:10:23;110.57;;;28.00;;
37157;SDS011;23050;51.776;22.638;2023-11-19T04:12:49;112.05;;;23.52;;
37157;SDS011;23050;51.776;22.638;2023-11-19T04:15:14;86.72;;;22.77;;
37157;SDS011;23050;51.776;22.638;2023-11-19T04:17:40;119.20;;;25.63;;
37157;SDS011;23050;51.776;22.638;2023-11-19T04:20:06;109.80;;;25.52;;
37157;SDS011;23050;51.776;22.638;2023-11-19T04:22:36;124.03;;;26.10;;
37157;SDS011;23050;51.776;22.638;2023-11-19T04:25:01;136.57;;;26.33;;
37157;SDS011;23050;51.776;22.638;2023-11-19T04:27:28;90.28;;;22.40;;
37157;SDS011;23050;51.776;22.638;2023-11-19T04:29:55;126.40;;;25.60;;
37157;SDS011;23050;51.776;22.638;2023-11-19T04:32:20;124.80;;;25.42;;
37157;SDS011;23050;51.776;22.638;2023-11-19T04:34:46;133.30;;;26.42;;
37157;SDS011;23050;51.776;22.638;2023-11-19T04:37:11;128.63;;;24.77;;
37157;SDS011;23050;51.776;22.638;2023-11-19T04:39:37;139.85;;;27.15;;
37157;SDS011;23050;51.776;22.638;2023-11-19T04:42:03;166.80;;;28.05;;
37157;SDS011;23050;51.776;22.638;2023-11-19T04:44:29;152.95;;;28.33;;
37157;SDS011;23050;51.776;22.638;2023-11-19T04:46:55;123.15;;;23.92;;
37157;SDS011;23050;51.776;22.638;2023-11-19T04:49:21;132.27;;;25.05;;
37157;SDS011;23050;51.776;22.638;2023-11-19T04:51:47;107.80;;;23.90;;
37157;SDS011;23050;51.776;22.638;2023-11-19T04:54:13;120.22;;;24.50;;
37157;SDS011;23050;51.776;22.638;2023-11-19T04:56:39;112.85;;;23.45;;
37157;SDS011;23050;51.776;22.638;2023-11-19T04:59:05;108.60;;;23.25;;
37157;SDS011;23050;51.776;22.638;2023-11-19T05:01:31;124.85;;;25.45;;
37157;SDS011;23050;51.776;22.638;2023-11-19T05:03:58;128.55;;;25.05;;
37157;SDS011;23050;51.776;22.638;2023-11-19T05:06:30;79.18;;;16.77;;
37157;SDS011;23050;51.776;22.638;2023-11-19T05:11:23;154.57;;;25.55;;
37157;SDS011;23050;51.776;22.638;2023-11-19T05:13:49;114.05;;;24.83;;
37157;SDS011;23050;51.776;22.638;2023-11-19T05:16:15;132.63;;;24.88;;
37157;SDS011;23050;51.776;22.638;2023-11-19T05:18:41;148.05;;;25.85;;
37157;SDS011;23050;51.776;22.638;2023-11-19T05:21:07;155.32;;;26.92;;
37157;SDS011;23050;51.776;22.638;2023-11-19T05:23:33;140.60;;;25.92;;
37157;SDS011;23050;51.776;22.638;2023-11-19T05:25:59;95.10;;;22.52;;
37157;SDS011;23050;51.776;22.638;2023-11-19T05:28:28;92.75;;;23.50;;
37157;SDS011;23050;51.776;22.638;2023-11-19T05:30:53;97.28;;;23.83;;
37157;SDS011;23050;51.776;22.638;2023-11-19T05:33:19;93.65;;;24.58;;
37157;SDS011;23050;51.776;22.638;2023-11-19T05:35:45;87.93;;;22.48;;
37157;SDS011;23050;51.776;22.638;2023-11-19T05:38:10;87.03;;;22.90;;
37157;SDS011;23050;51.776;22.638;2023-11-19T05:40:36;98.03;;;23.55;;
37157;SDS011;23050;51.776;22.638;2023-11-19T05:43:03;94.70;;;25.20;;
37157;SDS011;23050;51.776;22.638;2023-11-19T05:45:30;86.40;;;23.27;;
37157;SDS011;23050;51.776;22.638;2023-11-19T05:47:56;85.65;;;23.55;;
37157;SDS011;23050;51.776;22.638;2023-11-19T05:50:22;75.85;;;22.00;;
37157;SDS011;23050;51.776;22.638;2023-11-19T05:52:48;74.93;;;21.42;;
37157;SDS011;23050;51.776;22.638;2023-11-19T05:55:13;79.57;;;21.08;;
37157;SDS011;23050;51.776;22.638;2023-11-19T05:57:39;90.13;;;23.17;;
37157;SDS011;23050;51.776;22.638;2023-11-19T06:00:05;94.72;;;28.17;;
37157;SDS011;23050;51.776;22.638;2023-11-19T06:02:33;93.47;;;25.35;;
37157;SDS011;23050;51.776;22.638;2023-11-19T06:04:59;99.03;;;25.88;;
37157;SDS011;23050;51.776;22.638;2023-11-19T06:07:26;128.32;;;26.58;;
37157;SDS011;23050;51.776;22.638;2023-11-19T06:09:51;120.95;;;32.15;;
37157;SDS011;23050;51.776;22.638;2023-11-19T06:12:17;141.40;;;29.42;;
37157;SDS011;23050;51.776;22.638;2023-11-19T06:14:43;122.65;;;24.90;;
37157;SDS011;23050;51.776;22.638;2023-11-19T06:17:08;116.00;;;22.45;;
37157;SDS011;23050;51.776;22.638;2023-11-19T06:19:36;128.32;;;23.13;;
37157;SDS011;23050;51.776;22.638;2023-11-19T06:22:03;130.95;;;25.17;;
37157;SDS011;23050;51.776;22.638;2023-11-19T06:24:28;115.22;;;22.58;;
37157;SDS011;23050;51.776;22.638;2023-11-19T06:26:54;204.50;;;28.70;;
37157;SDS011;23050;51.776;22.638;2023-11-19T06:29:20;199.60;;;27.38;;
37157;SDS011;23050;51.776;22.638;2023-11-19T06:31:45;117.53;;;21.73;;
37157;SDS011;23050;51.776;22.638;2023-11-19T06:34:13;148.50;;;27.65;;
37157;SDS011;23050;51.776;22.638;2023-11-19T06:36:39;181.85;;;27.42;;
37157;SDS011;23050;51.776;22.638;2023-11-19T06:39:05;193.77;;;26.88;;
37157;SDS011;23050;51.776;22.638;2023-11-19T06:41:31;268.83;;;66.43;;
37157;SDS011;23050;51.776;22.638;2023-11-19T06:43:57;263.33;;;58.67;;
37157;SDS011;23050;51.776;22.638;2023-11-19T06:46:22;297.85;;;134.35;;
37157;SDS011;23050;51.776;22.638;2023-11-19T06:48:48;148.68;;;43.50;;
37157;SDS011;23050;51.776;22.638;2023-11-19T06:51:14;180.10;;;43.78;;
37157;SDS011;23050;51.776;22.638;2023-11-19T06:53:40;241.90;;;40.40;;
37157;SDS011;23050;51.776;22.638;2023-11-19T06:56:19;247.95;;;34.40;;
37157;SDS011;23050;51.776;22.638;2023-11-19T06:58:46;178.35;;;26.83;;
37157;SDS011;23050;51.776;22.638;2023-11-19T07:01:12;129.38;;;25.95;;
37157;SDS011;23050;51.776;22.638;2023-11-19T07:03:38;151.27;;;32.63;;
37157;SDS011;23050;51.776;22.638;2023-11-19T07:06:04;283.42;;;39.40;;
37157;SDS011;23050;51.776;22.638;2023-11-19T07:08:30;118.63;;;24.15;;
37157;SDS011;23050;51.776;22.638;2023-11-19T07:10:56;124.10;;;25.90;;
37157;SDS011;23050;51.776;22.638;2023-11-19T07:13:22;203.38;;;33.13;;
37157;SDS011;23050;51.776;22.638;2023-11-19T07:15:47;166.38;;;28.38;;
37157;SDS011;23050;51.776;22.638;2023-11-19T07:18:13;150.20;;;28.92;;
37157;SDS011;23050;51.776;22.638;2023-11-19T07:20:39;160.63;;;38.58;;
37157;SDS011;23050;51.776;22.638;2023-11-19T07:23:05;421.70;;;95.68;;
37157;SDS011;23050;51.776;22.638;2023-11-19T07:25:31;760.88;;;225.85;;
37157;SDS011;23050;51.776;22.638;2023-11-19T07:27:56;230.73;;;61.53;;
37157;SDS011;23050;51.776;22.638;2023-11-19T07:30:22;261.00;;;53.03;;
37157;SDS011;23050;51.776;22.638;2023-11-19T07:32:48;289.15;;;47.88;;
37157;SDS011;23050;51.776;22.638;2023-11-19T07:35:14;306.50;;;109.53;;
37157;SDS011;23050;51.776;22.638;2023-11-19T07:37:40;324.80;;;99.45;;
37157;SDS011;23050;51.776;22.638;2023-11-19T07:40:07;256.98;;;83.60;;
37157;SDS011;23050;51.776;22.638;2023-11-19T07:42:33;173.07;;;56.42;;
37157;SDS011;23050;51.776;22.638;2023-11-19T07:44:59;233.05;;;93.03;;
37157;SDS011;23050;51.776;22.638;2023-11-19T07:47:24;190.05;;;56.40;;
37157;SDS011;23050;51.776;22.638;2023-11-19T07:49:50;159.82;;;45.03;;
37157;SDS011;23050;51.776;22.638;2023-11-19T07:52:16;267.02;;;85.15;;
37157;SDS011;23050;51.776;22.638;2023-11-19T07:54:42;152.07;;;46.10;;
37157;SDS011;23050;51.776;22.638;2023-11-19T07:57:07;156.93;;;34.72;;
37157;SDS011;23050;51.776;22.638;2023-11-19T07:59:33;150.18;;;35.47;;
37157;SDS011;23050;51.776;22.638;2023-11-19T08:01:59;289.13;;;83.15;;
37157;SDS011;23050;51.776;22.638;2023-11-19T08:04:24;199.00;;;48.15;;
37157;SDS011;23050;51.776;22.638;2023-11-19T08:06:50;205.77;;;50.88;;
37157;SDS011;23050;51.776;22.638;2023-11-19T08:09:16;310.40;;;84.53;;
37157;SDS011;23050;51.776;22.638;2023-11-19T08:11:42;363.10;;;116.72;;
37157;SDS011;23050;51.776;22.638;2023-11-19T08:14:08;301.55;;;94.03;;
37157;SDS011;23050;51.776;22.638;2023-11-19T08:16:34;138.55;;;36.25;;
37157;SDS011;23050;51.776;22.638;2023-11-19T08:19:01;153.48;;;33.33;;
37157;SDS011;23050;51.776;22.638;2023-11-19T08:21:28;214.43;;;56.95;;
37157;SDS011;23050;51.776;22.638;2023-11-19T08:23:54;241.82;;;63.08;;
37157;SDS011;23050;51.776;22.638;2023-11-19T08:26:19;237.88;;;89.60;;
37157;SDS011;23050;51.776;22.638;2023-11-19T08:28:45;376.88;;;135.50;;
37157;SDS011;23050;51.776;22.638;2023-11-19T08:31:11;288.38;;;104.25;;
37157;SDS011;23050;51.776;22.638;2023-11-19T08:33:36;213.20;;;72.05;;
37157;SDS011;23050;51.776;22.638;2023-11-19T08:36:02;317.70;;;107.80;;
37157;SDS011;23050;51.776;22.638;2023-11-19T08:38:29;419.98;;;152.88;;
37157;SDS011;23050;51.776;22.638;2023-11-19T08:40:54;239.27;;;83.38;;
37157;SDS011;23050;51.776;22.638;2023-11-19T08:43:24;269.35;;;99.35;;
37157;SDS011;23050;51.776;22.638;2023-11-19T08:45:50;230.65;;;75.43;;
37157;SDS011;23050;51.776;22.638;2023-11-19T08:48:16;246.98;;;80.30;;
37157;SDS011;23050;51.776;22.638;2023-11-19T08:50:42;194.45;;;65.57;;
37157;SDS011;23050;51.776;22.638;2023-11-19T08:53:07;234.07;;;85.07;;
37157;SDS011;23050;51.776;22.638;2023-11-19T08:55:33;196.90;;;69.00;;
37157;SDS011;23050;51.776;22.638;2023-11-19T08:57:59;242.73;;;87.93;;
37157;SDS011;23050;51.776;22.638;2023-11-19T09:00:24;385.17;;;145.90;;
37157;SDS011;23050;51.776;22.638;2023-11-19T09:02:50;185.63;;;65.85;;
37157;SDS011;23050;51.776;22.638;2023-11-19T09:05:15;488.67;;;202.50;;
37157;SDS011;23050;51.776;22.638;2023-11-19T09:07:41;389.80;;;162.43;;
37157;SDS011;23050;51.776;22.638;2023-11-19T09:10:07;222.35;;;93.82;;
37157;SDS011;23050;51.776;22.638;2023-11-19T09:12:33;249.05;;;96.32;;
37157;SDS011;23050;51.776;22.638;2023-11-19T09:15:00;202.98;;;76.95;;
37157;SDS011;23050;51.776;22.638;2023-11-19T09:17:25;242.43;;;107.10;;
37157;SDS011;23050;51.776;22.638;2023-11-19T09:19:51;311.35;;;133.48;;
37157;SDS011;23050;51.776;22.638;2023-11-19T09:22:17;214.25;;;85.88;;
37157;SDS011;23050;51.776;22.638;2023-11-19T09:24:42;230.13;;;94.18;;
37157;SDS011;23050;51.776;22.638;2023-11-19T09:27:10;208.90;;;80.78;;
37157;SDS011;23050;51.776;22.638;2023-11-19T09:29:36;152.18;;;54.28;;
37157;SDS011;23050;51.776;22.638;2023-11-19T09:32:01;150.88;;;56.78;;
37157;SDS011;23050;51.776;22.638;2023-11-19T09:34:27;139.32;;;49.85;;
37157;SDS011;23050;51.776;22.638;2023-11-19T09:36:53;173.93;;;61.13;;
37157;SDS011;23050;51.776;22.638;2023-11-19T09:39:18;145.57;;;55.63;;
37157;SDS011;23050;51.776;22.638;2023-11-19T09:41:45;145.38;;;58.63;;
37157;SDS011;23050;51.776;22.638;2023-11-19T09:44:12;134.95;;;45.97;;
37157;SDS011;23050;51.776;22.638;2023-11-19T09:46:40;107.55;;;34.92;;
37157;SDS011;23050;51.776;22.638;2023-11-19T09:49:06;142.88;;;47.60;;
37157;SDS011;23050;51.776;22.638;2023-11-19T09:51:34;133.02;;;43.88;;
37157;SDS011;23050;51.776;22.638;2023-11-19T09:54:01;113.20;;;34.45;;
37157;SDS011;23050;51.776;22.638;2023-11-19T09:56:27;113.00;;;42.50;;
37157;SDS011;23050;51.776;22.638;2023-11-19T09:58:57;137.75;;;46.60;;
37157;SDS011;23050;51.776;22.638;2023-11-19T10:01:24;126.25;;;45.33;;
37157;SDS011;23050;51.776;22.638;2023-11-19T10:03:50;233.38;;;97.07;;
37157;SDS011;23050;51.776;22.638;2023-11-19T10:06:20;138.63;;;49.80;;
37157;SDS011;23050;51.776;22.638;2023-11-19T10:08:46;125.63;;;41.22;;
37157;SDS011;23050;51.776;22.638;2023-11-19T10:11:12;117.95;;;39.97;;
37157;SDS011;23050;51.776;22.638;2023-11-19T10:13:38;125.50;;;42.20;;
37157;SDS011;23050;51.776;22.638;2023-11-19T10:16:07;81.82;;;25.10;;
37157;SDS011;23050;51.776;22.638;2023-11-19T10:18:34;98.78;;;32.17;;
37157;SDS011;23050;51.776;22.638;2023-11-19T10:21:06;107.30;;;37.60;;
37157;SDS011;23050;51.776;22.638;2023-11-19T10:23:46;98.05;;;36.33;;
37157;SDS011;23050;51.776;22.638;2023-11-19T10:26:22;101.55;;;31.10;;
37157;SDS011;23050;51.776;22.638;2023-11-19T10:28:48;89.75;;;30.08;;
37157;SDS011;23050;51.776;22.638;2023-11-19T10:31:17;637.83;;;223.35;;
37157;SDS011;23050;51.776;22.638;2023-11-19T10:33:44;917.88;;;341.92;;
37157;SDS011;23050;51.776;22.638;2023-11-19T10:36:11;654.22;;;235.80;;
37157;SDS011;23050;51.776;22.638;2023-11-19T10:38:37;451.15;;;163.48;;
37157;SDS011;23050;51.776;22.638;2023-11-19T10:41:04;218.73;;;78.80;;
37157;SDS011;23050;51.776;22.638;2023-11-19T10:43:30;135.15;;;49.33;;
37157;SDS011;23050;51.776;22.638;2023-11-19T10:46:09;107.50;;;41.15;;
37157;SDS011;23050;51.776;22.638;2023-11-19T10:48:36;119.57;;;45.67;;
37157;SDS011;23050;51.776;22.638;2023-11-19T10:51:02;172.32;;;68.88;;
37157;SDS011;23050;51.776;22.638;2023-11-19T10:53:33;173.32;;;75.88;;
37157;SDS011;23050;51.776;22.638;2023-11-19T10:56:01;102.25;;;45.13;;
37157;SDS011;23050;51.776;22.638;2023-11-19T10:58:29;77.68;;;28.58;;
37157;SDS011;23050;51.776;22.638;2023-11-19T11:00:58;97.80;;;37.72;;
37157;SDS011;23050;51.776;22.638;2023-11-19T11:03:29;115.78;;;49.90;;
37157;SDS011;23050;51.776;22.638;2023-11-19T11:06:00;89.30;;;34.42;;
37157;SDS011;23050;51.776;22.638;2023-11-19T11:10:55;136.70;;;64.30;;
37157;SDS011;23050;51.776;22.638;2023-11-19T11:13:23;105.22;;;44.75;;
37157;SDS011;23050;51.776;22.638;2023-11-19T11:15:50;88.22;;;33.97;;
37157;SDS011;23050;51.776;22.638;2023-11-19T11:18:16;106.05;;;42.70;;
37157;SDS011;23050;51.776;22.638;2023-11-19T11:20:46;80.40;;;29.08;;
37157;SDS011;23050;51.776;22.638;2023-11-19T11:25:48;198.50;;;73.53;;
37157;SDS011;23050;51.776;22.638;2023-11-19T11:28:46;107.78;;;45.35;;
37157;SDS011;23050;51.776;22.638;2023-11-19T11:36:54;112.03;;;44.97;;
37157;SDS011;23050;51.776;22.638;2023-11-19T11:39:35;111.55;;;51.00;;
37157;SDS011;23050;51.776;22.638;2023-11-19T11:45:01;103.18;;;39.90;;
37157;SDS011;23050;51.776;22.638;2023-11-19T11:55:28;133.40;;;63.25;;
37157;SDS011;23050;51.776;22.638;2023-11-19T11:57:59;113.43;;;42.95;;
37157;SDS011;23050;51.776;22.638;2023-11-19T12:00:40;105.88;;;45.00;;
37157;SDS011;23050;51.776;22.638;2023-11-19T12:03:08;91.20;;;37.90;;
37157;SDS011;23050;51.776;22.638;2023-11-19T12:05:38;66.97;;;27.92;;
37157;SDS011;23050;51.776;22.638;2023-11-19T12:08:09;69.65;;;26.88;;
37157;SDS011;23050;51.776;22.638;2023-11-19T12:10:46;91.38;;;38.28;;
37157;SDS011;23050;51.776;22.638;2023-11-19T12:13:14;98.82;;;41.20;;
37157;SDS011;23050;51.776;22.638;2023-11-19T12:18:28;81.95;;;32.50;;
37157;SDS011;23050;51.776;22.638;2023-11-19T12:20:55;55.38;;;22.80;;
37157;SDS011;23050;51.776;22.638;2023-11-19T12:23:24;58.30;;;23.83;;
37157;SDS011;23050;51.776;22.638;2023-11-19T12:25:49;57.22;;;23.20;;
37157;SDS011;23050;51.776;22.638;2023-11-19T12:28:15;59.40;;;27.30;;
37157;SDS011;23050;51.776;22.638;2023-11-19T12:30:42;83.28;;;36.30;;
37157;SDS011;23050;51.776;22.638;2023-11-19T12:33:13;87.13;;;37.38;;
37157;SDS011;23050;51.776;22.638;2023-11-19T12:35:44;75.65;;;32.90;;
37157;SDS011;23050;51.776;22.638;2023-11-19T12:38:22;105.07;;;39.47;;
37157;SDS011;23050;51.776;22.638;2023-11-19T12:41:10;122.15;;;43.83;;
37157;SDS011;23050;51.776;22.638;2023-11-19T12:43:36;115.63;;;47.60;;
37157;SDS011;23050;51.776;22.638;2023-11-19T12:48:47;53.28;;;25.10;;
37157;SDS011;23050;51.776;22.638;2023-11-19T12:51:13;57.78;;;25.50;;
37157;SDS011;23050;51.776;22.638;2023-11-19T12:53:48;53.15;;;23.50;;
37157;SDS011;23050;51.776;22.638;2023-11-19T12:56:22;48.80;;;20.48;;
37157;SDS011;23050;51.776;22.638;2023-11-19T12:58:49;57.50;;;28.20;;
37157;SDS011;23050;51.776;22.638;2023-11-19T13:01:18;56.45;;;24.40;;
37157;SDS011;23050;51.776;22.638;2023-11-19T13:03:46;51.38;;;22.35;;
37157;SDS011;23050;51.776;22.638;2023-11-19T13:06:14;52.40;;;22.42;;
37157;SDS011;23050;51.776;22.638;2023-11-19T13:08:50;51.13;;;23.30;;
37157;SDS011;23050;51.776;22.638;2023-11-19T13:11:31;54.17;;;24.48;;
37157;SDS011;23050;51.776;22.638;2023-11-19T13:13:58;67.88;;;29.10;;
37157;SDS011;23050;51.776;22.638;2023-11-19T13:16:25;63.45;;;27.88;;
37157;SDS011;23050;51.776;22.638;2023-11-19T13:18:52;51.15;;;23.48;;
37157;SDS011;23050;51.776;22.638;2023-11-19T13:21:17;52.03;;;24.63;;
37157;SDS011;23050;51.776;22.638;2023-11-19T13:23:43;77.10;;;32.67;;
37157;SDS011;23050;51.776;22.638;2023-11-19T13:26:09;67.95;;;24.77;;
37157;SDS011;23050;51.776;22.638;2023-11-19T13:28:36;54.58;;;21.73;;
37157;SDS011;23050;51.776;22.638;2023-11-19T13:31:02;44.65;;;19.17;;
37157;SDS011;23050;51.776;22.638;2023-11-19T13:33:28;56.22;;;19.92;;
37157;SDS011;23050;51.776;22.638;2023-11-19T13:35:54;44.42;;;19.10;;
37157;SDS011;23050;51.776;22.638;2023-11-19T13:38:20;70.53;;;29.13;;
37157;SDS011;23050;51.776;22.638;2023-11-19T13:40:46;129.27;;;52.88;;
37157;SDS011;23050;51.776;22.638;2023-11-19T13:43:11;63.88;;;28.08;;
37157;SDS011;23050;51.776;22.638;2023-11-19T13:45:37;58.70;;;27.15;;
37157;SDS011;23050;51.776;22.638;2023-11-19T13:48:03;57.22;;;24.58;;
37157;SDS011;23050;51.776;22.638;2023-11-19T13:50:28;69.28;;;31.13;;
37157;SDS011;23050;51.776;22.638;2023-11-19T13:52:54;57.10;;;25.85;;
37157;SDS011;23050;51.776;22.638;2023-11-19T13:55:20;55.58;;;23.77;;
37157;SDS011;23050;51.776;22.638;2023-11-19T13:57:47;83.32;;;37.80;;
37157;SDS011;23050;51.776;22.638;2023-11-19T14:00:13;76.85;;;33.47;;
37157;SDS011;23050;51.776;22.638;2023-11-19T14:02:44;77.00;;;36.45;;
37157;SDS011;23050;51.776;22.638;2023-11-19T14:05:12;74.82;;;34.00;;
37157;SDS011;23050;51.776;22.638;2023-11-19T14:07:41;52.33;;;20.15;;
37157;SDS011;23050;51.776;22.638;2023-11-19T14:12:34;85.00;;;33.13;;
37157;SDS011;23050;51.776;22.638;2023-11-19T14:15:02;72.00;;;30.30;;
37157;SDS011;23050;51.776;22.638;2023-11-19T14:17:31;54.58;;;20.10;;
37157;SDS011;23050;51.776;22.638;2023-11-19T14:19:57;70.72;;;30.73;;
37157;SDS011;23050;51.776;22.638;2023-11-19T14:22:23;51.95;;;21.55;;
37157;SDS011;23050;51.776;22.638;2023-11-19T14:24:49;55.42;;;19.83;;
37157;SDS011;23050;51.776;22.638;2023-11-19T14:27:15;68.78;;;31.17;;
37157;SDS011;23050;51.776;22.638;2023-11-19T14:29:44;86.80;;;37.08;;
37157;SDS011;23050;51.776;22.638;2023-11-19T14:32:10;63.92;;;25.55;;
37157;SDS011;23050;51.776;22.638;2023-11-19T14:34:37;91.90;;;42.05;;
37157;SDS011;23050;51.776;22.638;2023-11-19T14:37:05;54.97;;;23.77;;